Svartfoss — V2PR3 — position and weather

sailwx.info

Track history (hours):
 
Tides and Currents Weather Stations Pressure Air Temp Water Temp Dewpoint Dewpoint Depression Visibility Wind Speed Wind Dir Waves Ship Positions

Svartfoss

Last reported at 2015-Jul-27 23:33 UTC. Time now 2015-Jul-28 21:45 UTC.
Position N 69°38' E 018°57'.

Length 80 m; draft 5.4 m.

Type: Cargo ship. MMSI: 304882000.

Date/timePositionNaut miles runAvg speedWind from/ knotsBaromVisibWave heightAir tempDewpointWater temp
2015-Jul-27 23:33N 69°38' E 018°57'0 0.0
2015-Jul-27 22:33N 69°38' E 018°57'1 0.5
2015-Jul-27 21:33N 69°38' E 018°57'1 1.4
2015-Jul-27 20:33N 69°39' E 018°58'2 1.6
2015-Jul-27 19:33N 69°41' E 019°01'  
2015-Jul-22 19:04N 69°46' E 019°08'713.0
2015-Jul-22 18:33N 69°40' E 018°60'1 0.8
2015-Jul-22 17:33N 69°39' E 018°58'0 0.0
2015-Jul-22 16:33N 69°39' E 018°58'1 0.7
2015-Jul-22 15:33N 69°39' E 018°58'1 1.2
2015-Jul-22 14:33N 69°38' E 018°57'0 0.0
2015-Jul-22 13:33N 69°38' E 018°57'1 0.8
2015-Jul-22 12:33N 69°37' E 018°55'232 5.4
2015-Jul-20 17:24N 66°37' E 012°24'1213.7
2015-Jul-20 16:33N 66°26' E 012°36'25 7.8
2015-Jul-20 13:21N 66°01' E 012°40'45 8.5
2015-Jul-20 08:05N 65°20' E 012°01'713.7
2015-Jul-20 07:34N 65°13' E 011°54'1313.4
2015-Jul-20 06:33N 65°01' E 011°40'1312.9
2015-Jul-20 05:33N 64°52' E 011°17'1 1.0
2015-Jul-20 04:33N 64°51' E 011°17'2 1.7
2015-Jul-20 03:33N 64°51' E 011°13'5413.5
2015-Jul-19 23:33N 64°06' E 010°01'1212.3
2015-Jul-19 22:34N 63°56' E 009°47'8 7.3
2015-Jul-19 21:30N 63°49' E 009°38'3 2.8
2015-Jul-19 20:34N 63°47' E 009°34'1413.6
2015-Jul-19 19:34N 63°37' E 009°14'4811.9
2015-Jul-19 15:33N 63°10' E 007°46'3 3.2
2015-Jul-19 14:33N 63°07' E 007°44'202 6.6
2015-Jul-18 08:05N 59°56' E 005°29'815.5
2015-Jul-18 07:33N 59°48' E 005°33'1414.5
2015-Jul-18 06:33N 59°36' E 005°16'1414.0
2015-Jul-18 05:33N 59°22' E 005°18'1414.1
2015-Jul-18 04:33N 59°08' E 005°25'1414.1
2015-Jul-18 03:34N 59°01' E 005°48'10 9.9
2015-Jul-18 02:34N 58°51' E 005°45'0 0.0
2015-Jul-18 01:34N 58°51' E 005°45'0 0.0
2015-Jul-18 00:34N 58°51' E 005°45'0 0.0
2015-Jul-17 23:34N 58°51' E 005°45'  
Track history (hours):
 
Tides and Currents Weather Stations Pressure Air Temp Water Temp Dewpoint Dewpoint Depression Visibility Wind Speed Wind Dir Waves Ship Positions

Svartfoss

Last reported at 2015-Jul-27 23:33 UTC. Time now 2015-Jul-28 21:46 UTC.
Position N 69°38' E 018°57'.

Length 80 m; draft 5.4 m.

Type: Cargo ship. MMSI: 304882000.

Date/timePositionNaut miles runAvg speedWind from/ knotsBaromVisibWave heightAir tempDewpointWater temp
2015-Jul-27 23:33N 69°38' E 018°57'0 0.0
2015-Jul-27 22:33N 69°38' E 018°57'1 0.5
2015-Jul-27 21:33N 69°38' E 018°57'1 1.4
2015-Jul-27 20:33N 69°39' E 018°58'2 1.6
2015-Jul-27 19:33N 69°41' E 019°01'  
2015-Jul-22 19:04N 69°46' E 019°08'713.0
2015-Jul-22 18:33N 69°40' E 018°60'1 0.8
2015-Jul-22 17:33N 69°39' E 018°58'0 0.0
2015-Jul-22 16:33N 69°39' E 018°58'1 0.7
2015-Jul-22 15:33N 69°39' E 018°58'1 1.2
2015-Jul-22 14:33N 69°38' E 018°57'0 0.0
2015-Jul-22 13:33N 69°38' E 018°57'1 0.8
2015-Jul-22 12:33N 69°37' E 018°55'232 5.4
2015-Jul-20 17:24N 66°37' E 012°24'1213.7
2015-Jul-20 16:33N 66°26' E 012°36'25 7.8
2015-Jul-20 13:21N 66°01' E 012°40'45 8.5
2015-Jul-20 08:05N 65°20' E 012°01'713.7
2015-Jul-20 07:34N 65°13' E 011°54'1313.4
2015-Jul-20 06:33N 65°01' E 011°40'1312.9
2015-Jul-20 05:33N 64°52' E 011°17'1 1.0
2015-Jul-20 04:33N 64°51' E 011°17'2 1.7
2015-Jul-20 03:33N 64°51' E 011°13'5413.5
2015-Jul-19 23:33N 64°06' E 010°01'1212.3
2015-Jul-19 22:34N 63°56' E 009°47'8 7.3
2015-Jul-19 21:30N 63°49' E 009°38'3 2.8
2015-Jul-19 20:34N 63°47' E 009°34'1413.6
2015-Jul-19 19:34N 63°37' E 009°14'4811.9
2015-Jul-19 15:33N 63°10' E 007°46'3 3.2
2015-Jul-19 14:33N 63°07' E 007°44'202 6.6
2015-Jul-18 08:05N 59°56' E 005°29'815.5
2015-Jul-18 07:33N 59°48' E 005°33'1414.5
2015-Jul-18 06:33N 59°36' E 005°16'1414.0
2015-Jul-18 05:33N 59°22' E 005°18'1414.1
2015-Jul-18 04:33N 59°08' E 005°25'1414.1
2015-Jul-18 03:34N 59°01' E 005°48'10 9.9
2015-Jul-18 02:34N 58°51' E 005°45'0 0.0
2015-Jul-18 01:34N 58°51' E 005°45'0 0.0
2015-Jul-18 00:34N 58°51' E 005°45'0 0.0
2015-Jul-17 23:34N 58°51' E 005°45'  

Dump ship's entire track history